sensor_id;sensor_type;location;lat;lon;timestamp;pressure;altitude;pressure_sealevel;temperature;humidity
23363;BME280;11853;48.080;11.960;2022-08-04T00:01:43;94837.13;;;23.47;64.69
23363;BME280;11853;48.080;11.960;2022-08-04T00:04:23;94826.75;;;23.44;64.51
23363;BME280;11853;48.080;11.960;2022-08-04T00:07:10;94830.28;;;23.45;65.08
23363;BME280;11853;48.080;11.960;2022-08-04T00:12:21;94829.56;;;23.37;64.95
23363;BME280;11853;48.080;11.960;2022-08-04T00:14:49;94825.56;;;23.40;64.71
23363;BME280;11853;48.080;11.960;2022-08-04T00:17:19;94829.56;;;23.37;65.04
23363;BME280;11853;48.080;11.960;2022-08-04T00:19:54;94838.75;;;23.36;65.04
23363;BME280;11853;48.080;11.960;2022-08-04T00:22:26;94831.91;;;23.34;65.47
23363;BME280;11853;48.080;11.960;2022-08-04T00:24:54;94831.44;;;23.37;65.21
23363;BME280;11853;48.080;11.960;2022-08-04T00:27:20;94835.44;;;23.34;65.24
23363;BME280;11853;48.080;11.960;2022-08-04T00:29:46;94833.19;;;23.31;65.42
23363;BME280;11853;48.080;11.960;2022-08-04T00:32:12;94833.06;;;23.26;65.72
23363;BME280;11853;48.080;11.960;2022-08-04T00:34:38;94830.81;;;23.23;65.83
23363;BME280;11853;48.080;11.960;2022-08-04T00:37:05;94831.53;;;23.19;66.32
23363;BME280;11853;48.080;11.960;2022-08-04T00:39:31;94822.47;;;23.13;65.74
23363;BME280;11853;48.080;11.960;2022-08-04T01:04:52;94827.38;;;22.86;66.55
23363;BME280;11853;48.080;11.960;2022-08-04T01:08:26;94836.41;;;22.80;66.87
23363;BME280;11853;48.080;11.960;2022-08-04T01:10:52;94836.63;;;22.66;67.09
23363;BME280;11853;48.080;11.960;2022-08-04T01:15:56;94835.34;;;22.51;68.04
23363;BME280;11853;48.080;11.960;2022-08-04T01:29:10;94822.22;;;22.17;69.09
23363;BME280;11853;48.080;11.960;2022-08-04T01:32:23;94832.00;;;22.18;69.47
23363;BME280;11853;48.080;11.960;2022-08-04T01:34:50;94825.34;;;22.14;69.78
23363;BME280;11853;48.080;11.960;2022-08-04T01:40:04;94824.47;;;22.20;69.58
23363;BME280;11853;48.080;11.960;2022-08-04T01:42:32;94819.00;;;22.27;69.09
23363;BME280;11853;48.080;11.960;2022-08-04T01:45:06;94814.63;;;22.26;69.22
23363;BME280;11853;48.080;11.960;2022-08-04T01:47:37;94813.34;;;22.29;68.85
23363;BME280;11853;48.080;11.960;2022-08-04T01:50:11;94815.78;;;22.18;69.17
23363;BME280;11853;48.080;11.960;2022-08-04T01:52:39;94813.06;;;22.18;69.41
23363;BME280;11853;48.080;11.960;2022-08-04T01:55:08;94806.84;;;22.18;69.63
23363;BME280;11853;48.080;11.960;2022-08-04T01:57:41;94809.31;;;22.19;69.42
23363;BME280;11853;48.080;11.960;2022-08-04T02:00:09;94815.78;;;22.18;69.37
23363;BME280;11853;48.080;11.960;2022-08-04T02:02:35;94813.50;;;22.15;69.40
23363;BME280;11853;48.080;11.960;2022-08-04T02:05:01;94813.06;;;22.18;69.47
23363;BME280;11853;48.080;11.960;2022-08-04T02:07:31;94813.34;;;22.29;69.29
23363;BME280;11853;48.080;11.960;2022-08-04T02:14:59;94809.47;;;22.24;69.25
23363;BME280;11853;48.080;11.960;2022-08-04T02:17:39;94808.47;;;22.19;69.74
23363;BME280;11853;48.080;11.960;2022-08-04T02:20:32;94808.03;;;22.22;69.82
23363;BME280;11853;48.080;11.960;2022-08-04T02:23:06;94806.41;;;22.14;69.68
23363;BME280;11853;48.080;11.960;2022-08-04T02:25:39;94805.16;;;22.17;69.81
23363;BME280;11853;48.080;11.960;2022-08-04T02:28:21;94803.50;;;22.16;69.60
23363;BME280;11853;48.080;11.960;2022-08-04T02:31:26;94810.63;;;22.10;70.51
23363;BME280;11853;48.080;11.960;2022-08-04T02:36:41;94799.38;;;22.13;70.63
23363;BME280;11853;48.080;11.960;2022-08-04T02:39:09;94801.91;;;22.08;70.69
23363;BME280;11853;48.080;11.960;2022-08-04T02:41:37;94806.13;;;22.04;71.05
23363;BME280;11853;48.080;11.960;2022-08-04T02:44:07;94801.56;;;22.04;70.75
23363;BME280;11853;48.080;11.960;2022-08-04T02:46:35;94806.72;;;22.06;70.93
23363;BME280;11853;48.080;11.960;2022-08-04T02:49:05;94809.50;;;21.99;71.25
23363;BME280;11853;48.080;11.960;2022-08-04T02:51:34;94796.22;;;21.98;71.58
23363;BME280;11853;48.080;11.960;2022-08-04T02:54:03;94800.94;;;22.02;71.45
23363;BME280;11853;48.080;11.960;2022-08-04T02:56:32;94799.38;;;21.95;71.51
23363;BME280;11853;48.080;11.960;2022-08-04T02:59:01;94805.06;;;21.87;71.80
23363;BME280;11853;48.080;11.960;2022-08-04T03:01:28;94806.34;;;21.84;72.12
23363;BME280;11853;48.080;11.960;2022-08-04T03:04:29;94807.91;;;21.73;72.73
23363;BME280;11853;48.080;11.960;2022-08-04T03:07:20;94799.44;;;21.70;72.51
23363;BME280;11853;48.080;11.960;2022-08-04T03:10:21;94794.47;;;21.67;nan
23363;BME280;11853;48.080;11.960;2022-08-04T03:13:27;94802.41;;;21.62;73.67
23363;BME280;11853;48.080;11.960;2022-08-04T03:30:15;94806.00;;;21.55;73.50
23363;BME280;11853;48.080;11.960;2022-08-04T03:49:43;94804.28;;;21.36;75.00
23363;BME280;11853;48.080;11.960;2022-08-04T04:26:00;94805.06;;;21.43;76.03
23363;BME280;11853;48.080;11.960;2022-08-04T04:31:32;94809.63;;;21.43;76.09
23363;BME280;11853;48.080;11.960;2022-08-04T04:35:09;94816.25;;;21.47;76.00
23363;BME280;11853;48.080;11.960;2022-08-04T04:40:02;94819.53;;;21.49;76.22
23363;BME280;11853;48.080;11.960;2022-08-04T04:45:19;94826.47;;;21.63;75.48
23363;BME280;11853;48.080;11.960;2022-08-04T04:51:05;94839.25;;;21.74;75.39
23363;BME280;11853;48.080;11.960;2022-08-04T04:56:16;94832.53;;;21.84;74.74
23363;BME280;11853;48.080;11.960;2022-08-04T04:58:44;94833.13;;;21.86;74.93
23363;BME280;11853;48.080;11.960;2022-08-04T05:04:28;94837.53;;;21.80;75.23
23363;BME280;11853;48.080;11.960;2022-08-04T05:12:57;94841.13;;;22.17;74.65
23363;BME280;11853;48.080;11.960;2022-08-04T05:15:30;94850.97;;;22.30;74.63
23363;BME280;11853;48.080;11.960;2022-08-04T05:18:00;94842.13;;;22.41;73.88
23363;BME280;11853;48.080;11.960;2022-08-04T05:20:33;94841.38;;;22.53;73.81
23363;BME280;11853;48.080;11.960;2022-08-04T05:23:06;94857.34;;;22.73;72.72
23363;BME280;11853;48.080;11.960;2022-08-04T05:28:14;94835.25;;;22.76;72.11
23363;BME280;11853;48.080;11.960;2022-08-04T05:30:45;94841.69;;;22.75;71.80
23363;BME280;11853;48.080;11.960;2022-08-04T05:33:54;94846.22;;;22.62;72.54
23363;BME280;11853;48.080;11.960;2022-08-04T05:36:25;94845.31;;;22.68;72.61
23363;BME280;11853;48.080;11.960;2022-08-04T05:38:56;94846.41;;;22.79;72.37
23363;BME280;11853;48.080;11.960;2022-08-04T05:41:26;94849.63;;;22.88;71.67
23363;BME280;11853;48.080;11.960;2022-08-04T05:43:52;94844.22;;;22.88;71.47
23363;BME280;11853;48.080;11.960;2022-08-04T05:46:19;94838.94;;;22.93;71.64
23363;BME280;11853;48.080;11.960;2022-08-04T05:48:45;94836.25;;;22.93;71.23
23363;BME280;11853;48.080;11.960;2022-08-04T05:51:13;94847.81;;;23.00;71.67
23363;BME280;11853;48.080;11.960;2022-08-04T05:53:41;94842.56;;;23.17;71.34
23363;BME280;11853;48.080;11.960;2022-08-04T05:56:10;94842.38;;;23.30;70.91
23363;BME280;11853;48.080;11.960;2022-08-04T05:58:37;94838.06;;;23.41;69.99
23363;BME280;11853;48.080;11.960;2022-08-04T06:01:07;94826.03;;;23.49;70.45
23363;BME280;11853;48.080;11.960;2022-08-04T06:03:34;94836.19;;;23.53;70.94
23363;BME280;11853;48.080;11.960;2022-08-04T06:06:02;94837.94;;;23.59;71.11
23363;BME280;11853;48.080;11.960;2022-08-04T06:08:29;94840.06;;;23.69;69.91
23363;BME280;11853;48.080;11.960;2022-08-04T06:10:58;94838.47;;;23.80;70.92
23363;BME280;11853;48.080;11.960;2022-08-04T06:13:36;94836.34;;;23.94;70.30
23363;BME280;11853;48.080;11.960;2022-08-04T06:16:05;94838.94;;;24.00;68.90
23363;BME280;11853;48.080;11.960;2022-08-04T06:18:33;94834.59;;;23.99;69.28
23363;BME280;11853;48.080;11.960;2022-08-04T06:21:02;94834.69;;;24.04;69.07
23363;BME280;11853;48.080;11.960;2022-08-04T06:23:29;94829.25;;;24.16;69.18
23363;BME280;11853;48.080;11.960;2022-08-04T06:25:58;94833.84;;;24.27;69.75
23363;BME280;11853;48.080;11.960;2022-08-04T06:28:26;94825.84;;;24.44;69.71
23363;BME280;11853;48.080;11.960;2022-08-04T06:30:53;94827.22;;;24.59;69.13
23363;BME280;11853;48.080;11.960;2022-08-04T06:33:22;94828.56;;;24.73;68.79
23363;BME280;11853;48.080;11.960;2022-08-04T06:35:55;94838.19;;;24.92;68.07
23363;BME280;11853;48.080;11.960;2022-08-04T06:38:24;94840.00;;;25.04;68.62
23363;BME280;11853;48.080;11.960;2022-08-04T06:40:52;94839.59;;;25.12;67.35
23363;BME280;11853;48.080;11.960;2022-08-04T06:43:20;94832.09;;;25.14;66.69
23363;BME280;11853;48.080;11.960;2022-08-04T06:45:47;94842.56;;;25.22;67.08
23363;BME280;11853;48.080;11.960;2022-08-04T06:48:15;94840.16;;;25.26;66.94
23363;BME280;11853;48.080;11.960;2022-08-04T06:50:43;94835.66;;;25.31;66.76
23363;BME280;11853;48.080;11.960;2022-08-04T06:53:10;94838.94;;;25.33;66.57
23363;BME280;11853;48.080;11.960;2022-08-04T06:55:36;94839.53;;;25.35;66.84
23363;BME280;11853;48.080;11.960;2022-08-04T06:58:03;94844.91;;;25.47;67.30
23363;BME280;11853;48.080;11.960;2022-08-04T07:00:30;94837.22;;;25.61;67.93
23363;BME280;11853;48.080;11.960;2022-08-04T07:02:57;94847.28;;;25.77;66.85
23363;BME280;11853;48.080;11.960;2022-08-04T07:05:24;94852.41;;;25.91;65.42
23363;BME280;11853;48.080;11.960;2022-08-04T07:07:50;94849.19;;;25.94;64.85
23363;BME280;11853;48.080;11.960;2022-08-04T07:10:17;94843.03;;;25.98;63.38
23363;BME280;11853;48.080;11.960;2022-08-04T07:12:43;94845.75;;;25.98;63.56
23363;BME280;11853;48.080;11.960;2022-08-04T07:15:10;94838.31;;;25.94;63.79
23363;BME280;11853;48.080;11.960;2022-08-04T07:17:36;94833.19;;;25.97;64.32
23363;BME280;11853;48.080;11.960;2022-08-04T07:20:04;94845.81;;;26.03;64.47
23363;BME280;11853;48.080;11.960;2022-08-04T07:22:30;94836.91;;;26.08;64.29
23363;BME280;11853;48.080;11.960;2022-08-04T07:24:57;94840.25;;;26.15;62.95
23363;BME280;11853;48.080;11.960;2022-08-04T07:27:24;94843.06;;;26.20;62.67
23363;BME280;11853;48.080;11.960;2022-08-04T07:29:50;94842.91;;;26.27;62.03
23363;BME280;11853;48.080;11.960;2022-08-04T07:32:19;94840.38;;;26.42;60.78
23363;BME280;11853;48.080;11.960;2022-08-04T07:34:47;94843.69;;;26.44;61.51
23363;BME280;11853;48.080;11.960;2022-08-04T07:37:13;94841.88;;;26.50;62.31
23363;BME280;11853;48.080;11.960;2022-08-04T07:39:39;94837.56;;;26.54;62.69
23363;BME280;11853;48.080;11.960;2022-08-04T07:42:05;94843.66;;;26.61;61.83
23363;BME280;11853;48.080;11.960;2022-08-04T07:44:33;94836.69;;;26.70;59.81
23363;BME280;11853;48.080;11.960;2022-08-04T07:47:00;94838.00;;;26.68;57.95
23363;BME280;11853;48.080;11.960;2022-08-04T07:49:28;94833.44;;;26.73;59.97
23363;BME280;11853;48.080;11.960;2022-08-04T07:51:54;94835.34;;;26.73;60.47
23363;BME280;11853;48.080;11.960;2022-08-04T07:54:21;94840.09;;;26.83;60.53
23363;BME280;11853;48.080;11.960;2022-08-04T07:56:47;94848.31;;;26.88;60.70
23363;BME280;11853;48.080;11.960;2022-08-04T07:59:17;94851.34;;;26.91;61.40
23363;BME280;11853;48.080;11.960;2022-08-04T08:01:45;94845.69;;;26.98;62.12
23363;BME280;11853;48.080;11.960;2022-08-04T08:04:11;94846.38;;;27.10;60.88
23363;BME280;11853;48.080;11.960;2022-08-04T08:06:38;94844.31;;;27.17;60.41
23363;BME280;11853;48.080;11.960;2022-08-04T08:09:12;94848.13;;;27.16;60.50
23363;BME280;11853;48.080;11.960;2022-08-04T08:11:38;94836.69;;;27.20;60.99
23363;BME280;11853;48.080;11.960;2022-08-04T08:14:04;94842.72;;;27.22;59.41
23363;BME280;11853;48.080;11.960;2022-08-04T08:16:36;94840.03;;;27.27;60.04
23363;BME280;11853;48.080;11.960;2022-08-04T08:19:02;94839.56;;;27.35;60.39
23363;BME280;11853;48.080;11.960;2022-08-04T08:21:28;94839.16;;;27.48;60.32
23363;BME280;11853;48.080;11.960;2022-08-04T08:23:54;94837.53;;;27.52;60.18
23363;BME280;11853;48.080;11.960;2022-08-04T08:26:20;94840.31;;;27.57;60.24
23363;BME280;11853;48.080;11.960;2022-08-04T08:28:46;94842.06;;;27.69;58.74
23363;BME280;11853;48.080;11.960;2022-08-04T08:31:12;94843.16;;;27.73;59.29
23363;BME280;11853;48.080;11.960;2022-08-04T08:33:39;94838.03;;;27.76;59.79
23363;BME280;11853;48.080;11.960;2022-08-04T08:39:01;94844.63;;;27.80;60.59
23363;BME280;11853;48.080;11.960;2022-08-04T08:44:33;94846.13;;;27.98;60.37
23363;BME280;11853;48.080;11.960;2022-08-04T08:47:38;94851.66;;;28.08;59.35
23363;BME280;11853;48.080;11.960;2022-08-04T08:53:22;94852.75;;;28.07;57.63
23363;BME280;11853;48.080;11.960;2022-08-04T08:58:48;94857.41;;;28.12;57.61
23363;BME280;11853;48.080;11.960;2022-08-04T09:04:31;94854.47;;;28.24;57.33
23363;BME280;11853;48.080;11.960;2022-08-04T09:12:32;94846.72;;;28.43;56.14
23363;BME280;11853;48.080;11.960;2022-08-04T09:15:03;94851.41;;;28.47;54.75
23363;BME280;11853;48.080;11.960;2022-08-04T09:17:39;94844.84;;;28.48;55.61
23363;BME280;11853;48.080;11.960;2022-08-04T09:20:14;94845.41;;;28.56;55.85
23363;BME280;11853;48.080;11.960;2022-08-04T09:22:53;94847.34;;;28.60;54.24
23363;BME280;11853;48.080;11.960;2022-08-04T09:25:27;94845.44;;;28.61;51.80
23363;BME280;11853;48.080;11.960;2022-08-04T09:27:59;94847.59;;;28.59;53.13
23363;BME280;11853;48.080;11.960;2022-08-04T09:36:12;94840.06;;;28.76;52.95
23363;BME280;11853;48.080;11.960;2022-08-04T09:46:51;94843.72;;;29.02;53.01
23363;BME280;11853;48.080;11.960;2022-08-04T09:52:07;94838.56;;;29.06;54.79
23363;BME280;11853;48.080;11.960;2022-08-04T09:57:20;94844.88;;;29.16;48.93
23363;BME280;11853;48.080;11.960;2022-08-04T10:00:05;94839.13;;;29.18;49.08
23363;BME280;11853;48.080;11.960;2022-08-04T10:02:52;94836.38;;;29.18;49.73
23363;BME280;11853;48.080;11.960;2022-08-04T10:05:25;94838.03;;;29.19;48.91
23363;BME280;11853;48.080;11.960;2022-08-04T10:10:35;94840.19;;;29.12;47.46
23363;BME280;11853;48.080;11.960;2022-08-04T10:15:48;94833.94;;;29.22;47.67
23363;BME280;11853;48.080;11.960;2022-08-04T10:21:18;94826.81;;;29.21;48.96
23363;BME280;11853;48.080;11.960;2022-08-04T10:27:07;94827.94;;;29.35;47.82
23363;BME280;11853;48.080;11.960;2022-08-04T10:29:43;94829.06;;;29.39;48.23
23363;BME280;11853;48.080;11.960;2022-08-04T10:32:28;94826.03;;;29.35;49.33
23363;BME280;11853;48.080;11.960;2022-08-04T10:35:21;94818.09;;;29.44;47.89
23363;BME280;11853;48.080;11.960;2022-08-04T10:40:39;94808.00;;;29.34;48.04
23363;BME280;11853;48.080;11.960;2022-08-04T10:46:20;94821.66;;;29.50;46.63
23363;BME280;11853;48.080;11.960;2022-08-04T10:49:01;94816.25;;;29.65;46.61
23363;BME280;11853;48.080;11.960;2022-08-04T10:51:55;94814.59;;;29.74;45.49
23363;BME280;11853;48.080;11.960;2022-08-04T10:57:18;94818.44;;;29.63;45.36
23363;BME280;11853;48.080;11.960;2022-08-04T11:00:07;94823.91;;;29.68;44.81
23363;BME280;11853;48.080;11.960;2022-08-04T11:08:08;94817.06;;;29.66;44.90
23363;BME280;11853;48.080;11.960;2022-08-04T11:13:44;94808.00;;;29.55;45.39
23363;BME280;11853;48.080;11.960;2022-08-04T11:16:18;94809.38;;;29.57;44.59
23363;BME280;11853;48.080;11.960;2022-08-04T11:19:04;94811.28;;;29.52;45.67
23363;BME280;11853;48.080;11.960;2022-08-04T11:21:35;94802.53;;;29.45;46.24
23363;BME280;11853;48.080;11.960;2022-08-04T11:24:14;94796.53;;;29.48;47.22
23363;BME280;11853;48.080;11.960;2022-08-04T11:26:48;94802.53;;;29.55;48.54
23363;BME280;11853;48.080;11.960;2022-08-04T11:29:37;94793.81;;;29.63;46.38
23363;BME280;11853;48.080;11.960;2022-08-04T11:32:09;94797.09;;;29.70;44.50
23363;BME280;11853;48.080;11.960;2022-08-04T11:34:43;94799.31;;;29.73;45.61
23363;BME280;11853;48.080;11.960;2022-08-04T11:37:27;94795.16;;;29.91;44.50
23363;BME280;11853;48.080;11.960;2022-08-04T11:40:01;94804.19;;;30.02;43.62
23363;BME280;11853;48.080;11.960;2022-08-04T11:42:40;94797.06;;;30.06;43.76
23363;BME280;11853;48.080;11.960;2022-08-04T11:45:13;94793.25;;;30.02;43.89
23363;BME280;11853;48.080;11.960;2022-08-04T11:47:50;94802.53;;;30.01;45.06
23363;BME280;11853;48.080;11.960;2022-08-04T11:50:38;94802.25;;;30.07;43.52
23363;BME280;11853;48.080;11.960;2022-08-04T11:53:07;94798.69;;;30.12;42.50
23363;BME280;11853;48.080;11.960;2022-08-04T11:55:34;94798.13;;;30.15;42.54
23363;BME280;11853;48.080;11.960;2022-08-04T11:58:01;94788.84;;;30.11;43.74
23363;BME280;11853;48.080;11.960;2022-08-04T12:00:30;94794.88;;;30.08;43.61
23363;BME280;11853;48.080;11.960;2022-08-04T12:06:18;94793.47;;;30.21;42.29
23363;BME280;11853;48.080;11.960;2022-08-04T12:08:57;94797.59;;;30.23;43.47
23363;BME280;11853;48.080;11.960;2022-08-04T12:12:01;94792.13;;;30.34;41.51
23363;BME280;11853;48.080;11.960;2022-08-04T12:15:11;94782.22;;;30.38;41.91
23363;BME280;11853;48.080;11.960;2022-08-04T12:17:58;94787.13;;;30.46;40.57
23363;BME280;11853;48.080;11.960;2022-08-04T12:20:28;94790.97;;;30.45;40.72
23363;BME280;11853;48.080;11.960;2022-08-04T12:22:54;94784.41;;;30.46;41.36
23363;BME280;11853;48.080;11.960;2022-08-04T12:25:30;94786.34;;;30.40;41.73
23363;BME280;11853;48.080;11.960;2022-08-04T12:28:04;94778.94;;;30.36;40.96
23363;BME280;11853;48.080;11.960;2022-08-04T12:30:36;94778.44;;;30.23;40.94
23363;BME280;11853;48.080;11.960;2022-08-04T12:33:08;94776.25;;;30.25;41.03
23363;BME280;11853;48.080;11.960;2022-08-04T12:38:32;94772.97;;;30.23;41.68
23363;BME280;11853;48.080;11.960;2022-08-04T12:41:00;94761.47;;;30.21;43.09
23363;BME280;11853;48.080;11.960;2022-08-04T12:43:37;94774.31;;;30.26;42.34
23363;BME280;11853;48.080;11.960;2022-08-04T12:46:09;94769.34;;;30.33;40.46
23363;BME280;11853;48.080;11.960;2022-08-04T12:48:37;94759.22;;;30.39;41.78
23363;BME280;11853;48.080;11.960;2022-08-04T12:51:07;94766.28;;;30.55;40.40
23363;BME280;11853;48.080;11.960;2022-08-04T12:53:39;94764.88;;;30.68;40.86
23363;BME280;11853;48.080;11.960;2022-08-04T12:56:07;94765.38;;;30.75;39.88
23363;BME280;11853;48.080;11.960;2022-08-04T12:58:48;94755.28;;;30.65;40.28
23363;BME280;11853;48.080;11.960;2022-08-04T13:01:19;94754.16;;;30.71;39.55
23363;BME280;11853;48.080;11.960;2022-08-04T13:03:46;94750.88;;;30.69;39.77
23363;BME280;11853;48.080;11.960;2022-08-04T13:06:14;94760.13;;;30.79;39.65
23363;BME280;11853;48.080;11.960;2022-08-04T13:08:44;94764.25;;;30.86;38.97
23363;BME280;11853;48.080;11.960;2022-08-04T13:11:11;94754.63;;;30.94;38.11
23363;BME280;11853;48.080;11.960;2022-08-04T13:13:38;94757.34;;;30.94;39.03
23363;BME280;11853;48.080;11.960;2022-08-04T13:16:08;94756.28;;;30.85;38.57
23363;BME280;11853;48.080;11.960;2022-08-04T13:18:40;94748.69;;;30.71;40.14
23363;BME280;11853;48.080;11.960;2022-08-04T13:21:21;94755.84;;;30.62;41.22
23363;BME280;11853;48.080;11.960;2022-08-04T13:23:51;94751.47;;;30.56;41.72
23363;BME280;11853;48.080;11.960;2022-08-04T13:26:20;94755.34;;;30.50;41.33
23363;BME280;11853;48.080;11.960;2022-08-04T13:28:49;94748.78;;;30.46;41.24
23363;BME280;11853;48.080;11.960;2022-08-04T13:31:19;94746.63;;;30.43;41.87
23363;BME280;11853;48.080;11.960;2022-08-04T13:33:48;94744.13;;;30.41;41.15
23363;BME280;11853;48.080;11.960;2022-08-04T13:36:15;94743.63;;;30.39;40.46
23363;BME280;11853;48.080;11.960;2022-08-04T13:38:51;94738.41;;;30.38;40.04
23363;BME280;11853;48.080;11.960;2022-08-04T13:41:18;94730.19;;;30.38;40.88
23363;BME280;11853;48.080;11.960;2022-08-04T13:43:47;94724.16;;;30.41;39.97
23363;BME280;11853;48.080;11.960;2022-08-04T13:46:17;94725.25;;;30.40;40.76
23363;BME280;11853;48.080;11.960;2022-08-04T13:48:44;94723.88;;;30.42;40.43
23363;BME280;11853;48.080;11.960;2022-08-04T13:51:11;94727.72;;;30.41;41.48
23363;BME280;11853;48.080;11.960;2022-08-04T13:53:39;94727.72;;;30.41;41.27
23363;BME280;11853;48.080;11.960;2022-08-04T13:56:08;94726.91;;;30.41;41.70
23363;BME280;11853;48.080;11.960;2022-08-04T13:58:40;94724.97;;;30.41;41.25
23363;BME280;11853;48.080;11.960;2022-08-04T14:01:14;94723.59;;;30.44;41.02
23363;BME280;11853;48.080;11.960;2022-08-04T14:03:54;94718.13;;;30.44;42.20
23363;BME280;11853;48.080;11.960;2022-08-04T14:06:49;94720.03;;;30.48;42.04
23363;BME280;11853;48.080;11.960;2022-08-04T14:09:17;94714.25;;;30.50;41.10
23363;BME280;11853;48.080;11.960;2022-08-04T14:11:46;94720.28;;;30.52;41.21
23363;BME280;11853;48.080;11.960;2022-08-04T14:14:26;94720.16;;;30.72;39.24
23363;BME280;11853;48.080;11.960;2022-08-04T14:19:26;94713.31;;;30.80;39.41
23363;BME280;11853;48.080;11.960;2022-08-04T14:21:52;94718.78;;;30.75;41.24
23363;BME280;11853;48.080;11.960;2022-08-04T14:24:26;94720.19;;;30.67;40.63
23363;BME280;11853;48.080;11.960;2022-08-04T14:26:58;94714.41;;;30.79;39.08
23363;BME280;11853;48.080;11.960;2022-08-04T14:29:24;94711.69;;;30.74;39.39
23363;BME280;11853;48.080;11.960;2022-08-04T14:31:59;94706.81;;;30.61;40.02
23363;BME280;11853;48.080;11.960;2022-08-04T14:34:27;94704.63;;;30.58;39.80
23363;BME280;11853;48.080;11.960;2022-08-04T14:36:55;94710.44;;;30.51;39.54
23363;BME280;11853;48.080;11.960;2022-08-04T14:42:03;94710.75;;;30.39;40.31
23363;BME280;11853;48.080;11.960;2022-08-04T14:44:29;94710.69;;;30.55;39.90
23363;BME280;11853;48.080;11.960;2022-08-04T14:46:55;94706.94;;;30.90;38.19
23363;BME280;11853;48.080;11.960;2022-08-04T14:49:23;94703.13;;;30.86;38.87
23363;BME280;11853;48.080;11.960;2022-08-04T14:52:00;94702.38;;;30.70;39.29
23363;BME280;11853;48.080;11.960;2022-08-04T14:54:32;94713.66;;;30.63;39.72
23363;BME280;11853;48.080;11.960;2022-08-04T14:57:03;94712.81;;;30.63;39.17
23363;BME280;11853;48.080;11.960;2022-08-04T14:59:43;94706.53;;;30.62;39.84
23363;BME280;11853;48.080;11.960;2022-08-04T15:02:10;94708.72;;;30.65;39.13
23363;BME280;11853;48.080;11.960;2022-08-04T15:04:38;94700.50;;;30.65;38.74
23363;BME280;11853;48.080;11.960;2022-08-04T15:07:05;94699.69;;;30.65;39.20
23363;BME280;11853;48.080;11.960;2022-08-04T15:09:32;94691.75;;;30.58;38.18
23363;BME280;11853;48.080;11.960;2022-08-04T15:11:58;94696.69;;;30.56;39.10
23363;BME280;11853;48.080;11.960;2022-08-04T15:14:24;94690.03;;;30.72;38.13
23363;BME280;11853;48.080;11.960;2022-08-04T15:16:51;94698.75;;;30.85;38.58
23363;BME280;11853;48.080;11.960;2022-08-04T15:19:17;94686.75;;;30.70;38.30
23363;BME280;11853;48.080;11.960;2022-08-04T15:21:43;94687.59;;;30.71;38.39
23363;BME280;11853;48.080;11.960;2022-08-04T15:24:09;94696.06;;;30.74;38.74
23363;BME280;11853;48.080;11.960;2022-08-04T15:26:43;94687.31;;;30.67;39.26
23363;BME280;11853;48.080;11.960;2022-08-04T15:29:16;94696.69;;;30.56;39.52
23363;BME280;11853;48.080;11.960;2022-08-04T15:31:44;94694.25;;;30.49;39.64
23363;BME280;11853;48.080;11.960;2022-08-04T15:34:11;94695.06;;;30.55;38.41
23363;BME280;11853;48.080;11.960;2022-08-04T15:36:50;94683.06;;;30.90;37.88
23363;BME280;11853;48.080;11.960;2022-08-04T15:42:30;94691.56;;;30.94;37.60
23363;BME280;11853;48.080;11.960;2022-08-04T15:47:38;94675.38;;;30.97;37.29
23363;BME280;11853;48.080;11.960;2022-08-04T15:50:07;94683.38;;;30.89;37.21
23363;BME280;11853;48.080;11.960;2022-08-04T15:55:31;94685.00;;;30.90;37.34
23363;BME280;11853;48.080;11.960;2022-08-04T16:00:41;94666.16;;;30.83;37.54
23363;BME280;11853;48.080;11.960;2022-08-04T16:22:34;94663.00;;;30.56;38.28
23363;BME280;11853;48.080;11.960;2022-08-04T16:25:00;94649.66;;;30.44;38.65
23363;BME280;11853;48.080;11.960;2022-08-04T16:27:56;94663.63;;;30.42;38.79
23363;BME280;11853;48.080;11.960;2022-08-04T16:30:21;94653.81;;;30.36;39.17
23363;BME280;11853;48.080;11.960;2022-08-04T16:32:50;94662.63;;;30.28;39.41
23363;BME280;11853;48.080;11.960;2022-08-04T16:35:25;94662.06;;;30.21;39.56
23363;BME280;11853;48.080;11.960;2022-08-04T16:38:14;94659.63;;;30.14;39.49
23363;BME280;11853;48.080;11.960;2022-08-04T16:40:39;94662.63;;;30.13;39.74
23363;BME280;11853;48.080;11.960;2022-08-04T16:43:13;94660.69;;;30.18;39.08
23363;BME280;11853;48.080;11.960;2022-08-04T16:45:50;94666.72;;;30.20;39.18
23363;BME280;11853;48.080;11.960;2022-08-04T16:48:19;94665.91;;;30.25;39.31
23363;BME280;11853;48.080;11.960;2022-08-04T16:51:07;94663.19;;;30.25;38.79
23363;BME280;11853;48.080;11.960;2022-08-04T16:53:44;94660.44;;;30.20;38.80
23363;BME280;11853;48.080;11.960;2022-08-04T16:56:11;94656.28;;;30.27;38.36
23363;BME280;11853;48.080;11.960;2022-08-04T16:58:39;94654.03;;;30.45;37.38
23363;BME280;11853;48.080;11.960;2022-08-04T17:01:10;94652.84;;;30.56;37.39
23363;BME280;11853;48.080;11.960;2022-08-04T17:03:37;94653.41;;;30.53;37.71
23363;BME280;11853;48.080;11.960;2022-08-04T17:08:35;94658.44;;;30.36;38.59
23363;BME280;11853;48.080;11.960;2022-08-04T17:11:03;94657.63;;;30.40;37.85
23363;BME280;11853;48.080;11.960;2022-08-04T17:13:32;94652.41;;;30.39;38.32
23363;BME280;11853;48.080;11.960;2022-08-04T17:16:07;94656.25;;;30.38;37.96
23363;BME280;11853;48.080;11.960;2022-08-04T17:18:39;94651.09;;;30.31;38.89
23363;BME280;11853;48.080;11.960;2022-08-04T17:21:21;94647.78;;;30.39;38.63
23363;BME280;11853;48.080;11.960;2022-08-04T17:23:49;94648.03;;;30.38;39.11
23363;BME280;11853;48.080;11.960;2022-08-04T17:26:21;94657.09;;;30.33;39.01
23363;BME280;11853;48.080;11.960;2022-08-04T17:28:48;94656.56;;;30.31;39.68
23363;BME280;11853;48.080;11.960;2022-08-04T17:31:15;94649.44;;;30.30;39.50